Nissos Mykonos — SYJZ — position and weather

sailwx.info

Track history (hours):
 
Tides and Currents Weather Stations Pressure Air Temp Water Temp Dewpoint Dewpoint Depression Visibility Wind Speed Wind Dir Waves Ship Positions

Nissos Mykonos

Last reported at 2015-May-22 19:33 UTC. Time now 2015-May-22 22:16 UTC.
Position N 37°34' E 025°38'.

Length 141 m; draft 5.2 m.

Type: Passenger vessel. MMSI: 240389000.

Date/timePositionNaut miles runAvg speedWind from/ knotsBaromVisibWave heightAir tempDewpointWater temp
2015-May-22 19:33N 37°34' E 025°38'1616.0
2015-May-22 18:34N 37°28' E 025°19'1615.5
2015-May-22 17:33N 37°26' E 024°60'7 7.3
2015-May-22 16:33N 37°32' E 024°53'4622.6
2015-May-22 14:31N 37°36' E 023°56'2121.4
2015-May-22 13:34N 37°51' E 023°37'6 5.9
2015-May-22 12:33N 37°57' E 023°38'0 0.0
2015-May-22 11:04N 37°57' E 023°38'0 0.0
2015-May-22 10:33N 37°57' E 023°38'0 0.0
2015-May-22 09:33N 37°57' E 023°38'0 0.0
2015-May-22 08:33N 37°57' E 023°38'0 0.0
2015-May-22 07:33N 37°57' E 023°38'0 0.0
2015-May-22 06:33N 37°57' E 023°38'0 0.0
2015-May-22 05:33N 37°57' E 023°38'0 0.0
2015-May-22 04:33N 37°57' E 023°38'0 0.0
2015-May-22 03:34N 37°57' E 023°38'0 0.0
2015-May-22 02:33N 37°57' E 023°38'0 0.0
2015-May-22 01:33N 37°57' E 023°38'0 0.0
2015-May-22 00:33N 37°57' E 023°38'0 0.0
2015-May-21 23:33N 37°57' E 023°38'0 0.0
2015-May-21 22:33N 37°57' E 023°38'0 0.0
2015-May-21 21:33N 37°57' E 023°38'0 0.0
2015-May-21 20:33N 37°57' E 023°38'1111.1
2015-May-21 19:34N 37°46' E 023°43'2322.5
2015-May-21 18:33N 37°34' E 024°06'3023.1
2015-May-21 17:16N 37°31' E 024°44'1114.1
2015-May-21 16:28N 37°26' E 024°57'1819.9
2015-May-21 15:33N 37°28' E 025°19'1515.3
2015-May-21 14:34N 37°31' E 025°38'156 9.1
2015-May-20 21:25N 40°03' E 024°54'1922.7
2015-May-20 20:34N 40°19' E 024°40'2221.5
2015-May-20 19:33N 40°38' E 024°26'1818.2
2015-May-20 18:33N 40°56' E 024°25'0 0.0
2015-May-20 17:33N 40°56' E 024°25'0 0.0
2015-May-20 16:33N 40°56' E 024°25'0 0.0
2015-May-20 15:33N 40°56' E 024°25'1010.4
2015-May-20 14:34N 40°46' E 024°27'2323.1
2015-May-20 13:33N 40°24' E 024°38'18410.7
2015-May-19 20:19N 37°30' E 025°55'1823.5
2015-May-19 19:33N 37°31' E 025°33'1313.4
2015-May-19 18:34N 37°28' E 025°17'1614.3
2015-May-19 17:25N 37°30' E 024°57'6221.6
2015-May-19 14:33N 37°44' E 023°40'1312.8
2015-May-19 13:33N 37°57' E 023°38'0 0.0
2015-May-19 12:33N 37°57' E 023°38'2 1.8
2015-May-19 11:33N 37°55' E 023°37'2121.1
2015-May-19 10:33N 37°38' E 023°54'4723.4
2015-May-19 08:33N 37°31' E 024°52'1212.1
2015-May-19 07:34N 37°28' E 025°07'2322.8
2015-May-19 06:34N 37°31' E 025°35'2722.7
2015-May-19 05:23N 37°32' E 026°09'1113.3
2015-May-19 04:32N 37°37' E 026°22'22 1.9
2015-May-18 17:09N 37°30' E 025°55'1424.1
2015-May-18 16:33N 37°31' E 025°38'2222.3
2015-May-18 15:33N 37°29' E 025°10'1312.6
2015-May-18 14:33N 37°31' E 024°54'4522.5
2015-May-18 12:32N 37°36' E 023°57'2121.8
2015-May-18 11:34N 37°50' E 023°37'7 6.6
2015-May-18 10:33N 37°57' E 023°38'0 0.0
2015-May-18 08:27N 37°57' E 023°38'0 0.0
2015-May-18 07:33N 37°57' E 023°38'0 0.0
2015-May-18 06:16N 37°57' E 023°38'0 0.0
2015-May-18 05:33N 37°57' E 023°38'0 0.0
2015-May-18 04:33N 37°57' E 023°38'0 0.0
2015-May-18 03:33N 37°57' E 023°38'0 0.0
2015-May-18 02:33N 37°57' E 023°38'0 0.0
2015-May-18 01:33N 37°57' E 023°38'0 0.0
2015-May-18 00:33N 37°57' E 023°38'0 0.0
2015-May-17 23:33N 37°57' E 023°38'0 0.0
2015-May-17 22:33N 37°57' E 023°38'0 0.0
2015-May-17 21:33N 37°57' E 023°38'0 0.0
2015-May-17 20:33N 37°57' E 023°38'7 7.5
2015-May-17 19:34N 37°49' E 023°40'2322.0
2015-May-17 18:31N 37°35' E 024°03'3323.2
2015-May-17 17:07N 37°31' E 024°44'1219.3
2015-May-17 16:30N 37°27' E 024°57'1516.1
2015-May-17 15:33N 37°28' E 025°17'1313.1
2015-May-17 14:33N 37°33' E 025°32'4417.5
2015-May-17 12:04N 37°44' E 026°25'16910.9
2015-May-16 20:33N 40°14' E 024°45'2622.4
2015-May-16 19:23N 40°38' E 024°29'1921.7
2015-May-16 18:32N 40°56' E 024°25'0 0.1
2015-May-16 17:22N 40°56' E 024°25'0 0.0
2015-May-16 16:32N 40°56' E 024°25'0 0.0
2015-May-16 15:23N 40°56' E 024°25'5 5.9
2015-May-16 14:34N 40°51' E 024°25'2323.5
2015-May-16 13:34N 40°29' E 024°34'3123.3
2015-May-16 12:15N 40°02' E 024°54'152 9.1
2015-May-15 19:33N 37°35' E 025°40'1818.2
2015-May-15 18:33N 37°28' E 025°19'1515.5
2015-May-15 17:33N 37°27' E 024°60'10 9.6
2015-May-15 16:34N 37°32' E 024°50'4321.5
2015-May-15 14:33N 37°37' E 023°56'2020.3
2015-May-15 13:33N 37°50' E 023°37'6 6.5
2015-May-15 12:34N 37°57' E 023°38'0 0.0
2015-May-15 11:33N 37°57' E 023°38'0 0.0
2015-May-15 10:33N 37°57' E 023°38'0 0.0
2015-May-15 09:33N 37°57' E 023°38'0 0.0
2015-May-15 08:33N 37°57' E 023°38'0 0.0
2015-May-15 07:33N 37°57' E 023°38'0 0.0
2015-May-15 06:33N 37°57' E 023°38'0 0.0
2015-May-15 03:33N 37°57' E 023°38'0 0.0
2015-May-15 02:33N 37°57' E 023°38'0 0.0
2015-May-15 01:33N 37°57' E 023°38'0 0.0
2015-May-15 00:33N 37°57' E 023°38'0 0.0
2015-May-14 23:33N 37°57' E 023°38'1 0.6
2015-May-14 22:33N 37°56' E 023°38'2019.9
2015-May-14 21:33N 37°39' E 023°50'4522.6
2015-May-14 19:33N 37°31' E 024°46'1313.0
2015-May-14 18:33N 37°27' E 025°02'1313.1
2015-May-14 17:33N 37°28' E 025°18'2320.9
2015-May-14 16:27N 37°30' E 025°47'168 9.4
2015-May-13 22:27N 40°12' E 024°47'2022.6
2015-May-13 21:33N 40°30' E 024°34'2222.4
2015-May-13 20:34N 40°51' E 024°25'5 5.1
2015-May-13 19:33N 40°56' E 024°25'0 0.0
2015-May-13 18:33N 40°56' E 024°25'0 0.1
2015-May-13 17:33N 40°56' E 024°25'2120.8
2015-May-13 16:33N 40°36' E 024°31'2322.8
2015-May-13 15:33N 40°15' E 024°44'177 9.7
2015-May-12 21:24N 37°24' E 025°39'1720.1
2015-May-12 20:34N 37°24' E 025°17'10 9.7
2015-May-12 19:34N 37°28' E 025°06'  
Track history (hours):
 
Tides and Currents Weather Stations Pressure Air Temp Water Temp Dewpoint Dewpoint Depression Visibility Wind Speed Wind Dir Waves Ship Positions

Nissos Mykonos

Last reported at 2015-May-22 19:33 UTC. Time now 2015-May-22 22:16 UTC.
Position N 37°34' E 025°38'.

Length 141 m; draft 5.2 m.

Type: Passenger vessel. MMSI: 240389000.

Date/timePositionNaut miles runAvg speedWind from/ knotsBaromVisibWave heightAir tempDewpointWater temp
2015-May-22 19:33N 37°34' E 025°38'1616.0
2015-May-22 18:34N 37°28' E 025°19'1615.5
2015-May-22 17:33N 37°26' E 024°60'7 7.3
2015-May-22 16:33N 37°32' E 024°53'4622.6
2015-May-22 14:31N 37°36' E 023°56'2121.4
2015-May-22 13:34N 37°51' E 023°37'6 5.9
2015-May-22 12:33N 37°57' E 023°38'0 0.0
2015-May-22 11:04N 37°57' E 023°38'0 0.0
2015-May-22 10:33N 37°57' E 023°38'0 0.0
2015-May-22 09:33N 37°57' E 023°38'0 0.0
2015-May-22 08:33N 37°57' E 023°38'0 0.0
2015-May-22 07:33N 37°57' E 023°38'0 0.0
2015-May-22 06:33N 37°57' E 023°38'0 0.0
2015-May-22 05:33N 37°57' E 023°38'0 0.0
2015-May-22 04:33N 37°57' E 023°38'0 0.0
2015-May-22 03:34N 37°57' E 023°38'0 0.0
2015-May-22 02:33N 37°57' E 023°38'0 0.0
2015-May-22 01:33N 37°57' E 023°38'0 0.0
2015-May-22 00:33N 37°57' E 023°38'0 0.0
2015-May-21 23:33N 37°57' E 023°38'0 0.0
2015-May-21 22:33N 37°57' E 023°38'0 0.0
2015-May-21 21:33N 37°57' E 023°38'0 0.0
2015-May-21 20:33N 37°57' E 023°38'1111.1
2015-May-21 19:34N 37°46' E 023°43'2322.5
2015-May-21 18:33N 37°34' E 024°06'3023.1
2015-May-21 17:16N 37°31' E 024°44'1114.1
2015-May-21 16:28N 37°26' E 024°57'1819.9
2015-May-21 15:33N 37°28' E 025°19'1515.3
2015-May-21 14:34N 37°31' E 025°38'156 9.1
2015-May-20 21:25N 40°03' E 024°54'1922.7
2015-May-20 20:34N 40°19' E 024°40'2221.5
2015-May-20 19:33N 40°38' E 024°26'1818.2
2015-May-20 18:33N 40°56' E 024°25'0 0.0
2015-May-20 17:33N 40°56' E 024°25'0 0.0
2015-May-20 16:33N 40°56' E 024°25'0 0.0
2015-May-20 15:33N 40°56' E 024°25'1010.4
2015-May-20 14:34N 40°46' E 024°27'2323.1
2015-May-20 13:33N 40°24' E 024°38'18410.7
2015-May-19 20:19N 37°30' E 025°55'1823.5
2015-May-19 19:33N 37°31' E 025°33'1313.4
2015-May-19 18:34N 37°28' E 025°17'1614.3
2015-May-19 17:25N 37°30' E 024°57'6221.6
2015-May-19 14:33N 37°44' E 023°40'1312.8
2015-May-19 13:33N 37°57' E 023°38'0 0.0
2015-May-19 12:33N 37°57' E 023°38'2 1.8
2015-May-19 11:33N 37°55' E 023°37'2121.1
2015-May-19 10:33N 37°38' E 023°54'4723.4
2015-May-19 08:33N 37°31' E 024°52'1212.1
2015-May-19 07:34N 37°28' E 025°07'2322.8
2015-May-19 06:34N 37°31' E 025°35'2722.7
2015-May-19 05:23N 37°32' E 026°09'1113.3
2015-May-19 04:32N 37°37' E 026°22'22 1.9
2015-May-18 17:09N 37°30' E 025°55'1424.1
2015-May-18 16:33N 37°31' E 025°38'2222.3
2015-May-18 15:33N 37°29' E 025°10'1312.6
2015-May-18 14:33N 37°31' E 024°54'4522.5
2015-May-18 12:32N 37°36' E 023°57'2121.8
2015-May-18 11:34N 37°50' E 023°37'7 6.6
2015-May-18 10:33N 37°57' E 023°38'0 0.0
2015-May-18 08:27N 37°57' E 023°38'0 0.0
2015-May-18 07:33N 37°57' E 023°38'0 0.0
2015-May-18 06:16N 37°57' E 023°38'0 0.0
2015-May-18 05:33N 37°57' E 023°38'0 0.0
2015-May-18 04:33N 37°57' E 023°38'0 0.0
2015-May-18 03:33N 37°57' E 023°38'0 0.0
2015-May-18 02:33N 37°57' E 023°38'0 0.0
2015-May-18 01:33N 37°57' E 023°38'0 0.0
2015-May-18 00:33N 37°57' E 023°38'0 0.0
2015-May-17 23:33N 37°57' E 023°38'0 0.0
2015-May-17 22:33N 37°57' E 023°38'0 0.0
2015-May-17 21:33N 37°57' E 023°38'0 0.0
2015-May-17 20:33N 37°57' E 023°38'7 7.5
2015-May-17 19:34N 37°49' E 023°40'2322.0
2015-May-17 18:31N 37°35' E 024°03'3323.2
2015-May-17 17:07N 37°31' E 024°44'1219.3
2015-May-17 16:30N 37°27' E 024°57'1516.1
2015-May-17 15:33N 37°28' E 025°17'1313.1
2015-May-17 14:33N 37°33' E 025°32'4417.5
2015-May-17 12:04N 37°44' E 026°25'16910.9
2015-May-16 20:33N 40°14' E 024°45'2622.4
2015-May-16 19:23N 40°38' E 024°29'1921.7
2015-May-16 18:32N 40°56' E 024°25'0 0.1
2015-May-16 17:22N 40°56' E 024°25'0 0.0
2015-May-16 16:32N 40°56' E 024°25'0 0.0
2015-May-16 15:23N 40°56' E 024°25'5 5.9
2015-May-16 14:34N 40°51' E 024°25'2323.5
2015-May-16 13:34N 40°29' E 024°34'3123.3
2015-May-16 12:15N 40°02' E 024°54'152 9.1
2015-May-15 19:33N 37°35' E 025°40'1818.2
2015-May-15 18:33N 37°28' E 025°19'1515.5
2015-May-15 17:33N 37°27' E 024°60'10 9.6
2015-May-15 16:34N 37°32' E 024°50'4321.5
2015-May-15 14:33N 37°37' E 023°56'2020.3
2015-May-15 13:33N 37°50' E 023°37'6 6.5
2015-May-15 12:34N 37°57' E 023°38'0 0.0
2015-May-15 11:33N 37°57' E 023°38'0 0.0
2015-May-15 10:33N 37°57' E 023°38'0 0.0
2015-May-15 09:33N 37°57' E 023°38'0 0.0
2015-May-15 08:33N 37°57' E 023°38'0 0.0
2015-May-15 07:33N 37°57' E 023°38'0 0.0
2015-May-15 06:33N 37°57' E 023°38'0 0.0
2015-May-15 03:33N 37°57' E 023°38'0 0.0
2015-May-15 02:33N 37°57' E 023°38'0 0.0
2015-May-15 01:33N 37°57' E 023°38'0 0.0
2015-May-15 00:33N 37°57' E 023°38'0 0.0
2015-May-14 23:33N 37°57' E 023°38'1 0.6
2015-May-14 22:33N 37°56' E 023°38'2019.9
2015-May-14 21:33N 37°39' E 023°50'4522.6
2015-May-14 19:33N 37°31' E 024°46'1313.0
2015-May-14 18:33N 37°27' E 025°02'1313.1
2015-May-14 17:33N 37°28' E 025°18'2320.9
2015-May-14 16:27N 37°30' E 025°47'168 9.4
2015-May-13 22:27N 40°12' E 024°47'2022.6
2015-May-13 21:33N 40°30' E 024°34'2222.4
2015-May-13 20:34N 40°51' E 024°25'5 5.1
2015-May-13 19:33N 40°56' E 024°25'0 0.0
2015-May-13 18:33N 40°56' E 024°25'0 0.1
2015-May-13 17:33N 40°56' E 024°25'2120.8
2015-May-13 16:33N 40°36' E 024°31'2322.8
2015-May-13 15:33N 40°15' E 024°44'177 9.7
2015-May-12 21:24N 37°24' E 025°39'1720.1
2015-May-12 20:34N 37°24' E 025°17'10 9.7
2015-May-12 19:34N 37°28' E 025°06'  

Dump ship's entire track history